首页
METAR-TAF:

METAR-TAF

机场 :

拉里萨, 希腊

纬度: 39-38N, 经度: 022-25E, 海拔: 73米

METAR: 丢失

时间: 08:34 (05:34 UTC)

预报

该预报发布于3小时和34分钟前的02:00 UTC
预报有效从16日的 03点(UTC)到 16日的 12点(UTC)
风速3节,风向多变
能见度10公里或以上
少量云层高于2000英尺
几率 30% :
短暂存在
从 16日的 03点(UTC)到 16日的 07点(UTC)
能見度: 4000
散云层高于800英尺
轻雾
成为
从 16日的 07点(UTC)到 16日的 09点(UTC)
风速8节,风向

TAF: LGLR 160200Z 1603/1612 VRB03KT 9999 FEW020 PROB30 TEMPO 1603/1607 4000 BR SCT008 BECMG 1607/1609 09008KT

超过4000个机场的气象观测和天气预报(METAR&TAF报告)。

可查询的气象台以黄色和红色小点在地图上表示。

将鼠标移到小点上方,可查看气象台名称。

然后点击查看天气观测和预报。

如需切换地图:点击带黑十字的绿色按钮放大地图;点击带横线的绿色按钮缩小地图;或者点击绿色箭头查看邻近地区的地图。


METAR-TAF: